Komokwa — ZJL8536 — position and weather

sailwx.info

Track history (hours):
 
Tides and Currents Weather Stations Pressure Air Temp Water Temp Dewpoint Dewpoint Depression Visibility Wind Speed Wind Dir Waves Ship Positions

Komokwa

Last reported at 2017-Jun-24 09:17 UTC. Time now 2017-Jun-24 20:47 UTC.
Position N 38°45' W 123°46'.

Length 37 m; draft 2.3 m.

Type: Ship. MMSI: 378111827.

Date/timePositionNaut miles runAvg speedWind from/ knotsBaromVisibWave heightAir tempDewpointWater temp
2017-Jun-24 09:17N 38°45' W 123°46'2 7.9
2017-Jun-24 09:00N 38°43' W 123°45'4 8.2
2017-Jun-24 08:30N 38°39' W 123°43'4 8.4
2017-Jun-24 08:00N 38°36' W 123°40'4 8.6
2017-Jun-24 07:30N 38°32' W 123°38'4 8.6
2017-Jun-24 07:00N 38°28' W 123°35'4 8.0
2017-Jun-24 06:30N 38°25' W 123°33'4 7.9
2017-Jun-24 06:00N 38°21' W 123°30'4 8.2
2017-Jun-24 05:30N 38°18' W 123°27'4 8.1
2017-Jun-24 05:00N 38°14' W 123°25'4 8.2
2017-Jun-24 04:30N 38°11' W 123°22'4 8.2
2017-Jun-24 04:00N 38°08' W 123°18'4 8.3
2017-Jun-24 03:30N 38°05' W 123°14'4 8.6
2017-Jun-24 03:00N 38°02' W 123°10'5 9.5
2017-Jun-24 02:30N 37°59' W 123°06'5 9.3
2017-Jun-24 02:00N 37°56' W 123°01'4 8.4
2017-Jun-24 01:30N 37°54' W 122°57'4 8.6
2017-Jun-24 01:00N 37°51' W 122°52'4 7.0
2017-Jun-24 00:30N 37°50' W 122°48'4 7.9
2017-Jun-24 00:00N 37°48' W 122°44'4 7.8
2017-Jun-23 23:30N 37°46' W 122°39'4 8.5
2017-Jun-23 23:00N 37°47' W 122°34'510.0
2017-Jun-23 22:30N 37°49' W 122°28'4 7.1
2017-Jun-23 22:00N 37°51' W 122°25'3 7.0
2017-Jun-23 21:30N 37°55' W 122°25'2 3.9
2017-Jun-23 21:00N 37°55' W 122°22'0 0.0
2017-Jun-23 20:28N 37°55' W 122°22'0 0.0
2017-Jun-23 19:58N 37°55' W 122°22'0 0.0
2017-Jun-23 19:28N 37°55' W 122°22'0 0.0
2017-Jun-23 18:58N 37°55' W 122°22'0 0.0
2017-Jun-23 18:28N 37°55' W 122°22'0 0.0
2017-Jun-23 17:58N 37°55' W 122°22'0 0.0
2017-Jun-23 17:28N 37°55' W 122°22'0 0.0
2017-Jun-23 16:58N 37°55' W 122°22'0 0.0
2017-Jun-23 16:28N 37°55' W 122°22'0 0.0
2017-Jun-23 15:55N 37°55' W 122°22'0 0.0
2017-Jun-23 15:28N 37°55' W 122°22'0 0.0
2017-Jun-23 14:55N 37°55' W 122°22'0 0.0
2017-Jun-23 13:58N 37°55' W 122°22'0 0.0
2017-Jun-23 13:28N 37°55' W 122°22'0 0.0
2017-Jun-23 12:58N 37°55' W 122°22'0 0.0
2017-Jun-23 12:28N 37°55' W 122°22'0 0.0
2017-Jun-23 11:55N 37°55' W 122°22'0 0.0
2017-Jun-23 11:28N 37°55' W 122°22'0 0.0
2017-Jun-23 10:58N 37°55' W 122°22'0 0.0
2017-Jun-23 10:28N 37°55' W 122°22'0 0.0
2017-Jun-23 09:58N 37°55' W 122°22'0 0.0
2017-Jun-23 09:28N 37°55' W 122°22'0 0.0
2017-Jun-23 08:58N 37°55' W 122°22'0 0.0
2017-Jun-23 08:28N 37°55' W 122°22'0 0.0
2017-Jun-23 07:55N 37°55' W 122°22'0 0.0
2017-Jun-23 07:28N 37°55' W 122°22'0 0.0
2017-Jun-23 06:58N 37°55' W 122°22'0 0.0
2017-Jun-23 06:28N 37°55' W 122°22'0 0.0
2017-Jun-23 05:58N 37°55' W 122°22'0 0.0
2017-Jun-23 05:28N 37°55' W 122°22'0 0.0
2017-Jun-23 04:58N 37°55' W 122°22'0 0.0
2017-Jun-23 04:28N 37°55' W 122°22'0 0.0
2017-Jun-23 03:55N 37°55' W 122°22'0 0.0
2017-Jun-23 03:28N 37°55' W 122°22'0 0.0
2017-Jun-23 02:58N 37°55' W 122°22'0 0.0
2017-Jun-23 02:28N 37°55' W 122°22'0 0.0
2017-Jun-23 01:58N 37°55' W 122°22'0 0.0
2017-Jun-23 01:25N 37°55' W 122°22'0 0.0
2017-Jun-23 00:55N 37°55' W 122°22'0 0.0
2017-Jun-23 00:25N 37°55' W 122°22'0 0.0
2017-Jun-23 00:00N 37°55' W 122°22'0 0.0
2017-Jun-22 23:30N 37°55' W 122°22'1 1.9
2017-Jun-22 23:00N 37°54' W 122°22'3 5.7
2017-Jun-22 22:30N 37°54' W 122°25'4 7.2
2017-Jun-22 22:00N 37°51' W 122°26'3 5.7
2017-Jun-22 21:30N 37°52' W 122°29'0 0.0
2017-Jun-22 21:00N 37°52' W 122°29'0 0.0
2017-Jun-22 20:30N 37°52' W 122°29'0 0.0
2017-Jun-22 20:00N 37°52' W 122°29'0 0.0
2017-Jun-22 19:30N 37°52' W 122°29'0 0.0
2017-Jun-22 19:00N 37°52' W 122°29'0 0.0
2017-Jun-22 18:30N 37°52' W 122°29'0 0.0
2017-Jun-22 18:00N 37°52' W 122°29'0 0.0
2017-Jun-22 17:30N 37°52' W 122°29'0 0.0
2017-Jun-22 17:00N 37°52' W 122°29'0 0.0
2017-Jun-22 16:30N 37°52' W 122°29'0 0.0
2017-Jun-22 16:00N 37°52' W 122°29'0 0.0
2017-Jun-22 15:30N 37°52' W 122°29'0 0.0
2017-Jun-22 15:00N 37°52' W 122°29'0 0.0
2017-Jun-22 14:30N 37°52' W 122°29'0 0.0
2017-Jun-22 13:30N 37°52' W 122°29'0 0.0
2017-Jun-22 13:00N 37°52' W 122°29'0 0.0
2017-Jun-22 12:30N 37°52' W 122°29'0 0.0
2017-Jun-22 12:00N 37°52' W 122°29'0 0.0
2017-Jun-22 11:30N 37°52' W 122°29'0 0.0
2017-Jun-22 11:00N 37°52' W 122°29'0 0.0
2017-Jun-22 10:30N 37°52' W 122°29'0 0.0
2017-Jun-22 10:00N 37°52' W 122°29'0 0.0
2017-Jun-22 09:30N 37°52' W 122°29'0 0.0
2017-Jun-22 09:00N 37°52' W 122°29'0 0.0
2017-Jun-22 08:27N 37°52' W 122°29'0 0.0
2017-Jun-22 08:00N 37°52' W 122°29'0 0.0
2017-Jun-22 07:30N 37°52' W 122°29'0 0.0
2017-Jun-22 07:00N 37°52' W 122°29'0 0.0
2017-Jun-22 06:30N 37°52' W 122°29'0 0.0
2017-Jun-22 06:00N 37°52' W 122°29'0 0.0
2017-Jun-22 05:30N 37°52' W 122°29'0 0.0
2017-Jun-22 05:00N 37°52' W 122°29'0 0.0
2017-Jun-22 04:30N 37°52' W 122°29'0 0.0
2017-Jun-22 04:00N 37°52' W 122°29'0 0.0
2017-Jun-22 03:30N 37°52' W 122°29'0 0.0
2017-Jun-22 03:00N 37°52' W 122°29'0 0.0
2017-Jun-22 02:30N 37°52' W 122°29'0 0.0
2017-Jun-22 02:00N 37°52' W 122°29'0 0.0
2017-Jun-22 01:30N 37°52' W 122°29'0 0.0
2017-Jun-22 01:00N 37°52' W 122°29'0 0.0
2017-Jun-22 00:30N 37°52' W 122°29'0 0.0
2017-Jun-22 00:00N 37°52' W 122°29'0 0.0
2017-Jun-21 23:30N 37°52' W 122°29'0 0.0
2017-Jun-21 23:00N 37°52' W 122°29'0 0.0
2017-Jun-21 22:30N 37°52' W 122°29'0 0.0
2017-Jun-21 22:00N 37°52' W 122°29'0 0.0
2017-Jun-21 21:30N 37°52' W 122°29'0 0.0
2017-Jun-21 21:00N 37°52' W 122°29'0 0.0
2017-Jun-21 20:30N 37°52' W 122°29'0 0.0
2017-Jun-21 20:00N 37°52' W 122°29'0 0.0
2017-Jun-21 19:30N 37°52' W 122°29'0 0.0
2017-Jun-21 19:00N 37°52' W 122°29'0 0.0
2017-Jun-21 18:30N 37°52' W 122°29'0 0.0
2017-Jun-21 18:00N 37°52' W 122°29'0 0.0
2017-Jun-21 17:30N 37°52' W 122°29'0 0.0
2017-Jun-21 17:00N 37°52' W 122°29'0 0.0
2017-Jun-21 16:30N 37°52' W 122°29'0 0.0
2017-Jun-21 16:00N 37°52' W 122°29'0 0.0
2017-Jun-21 15:30N 37°52' W 122°29'0 0.0
2017-Jun-21 15:00N 37°52' W 122°29'0 0.0
2017-Jun-21 14:00N 37°52' W 122°29'0 0.0
2017-Jun-21 13:30N 37°52' W 122°29'0 0.0
2017-Jun-21 13:00N 37°52' W 122°29'0 0.0
2017-Jun-21 12:30N 37°52' W 122°29'0 0.0
2017-Jun-21 12:00N 37°52' W 122°29'0 0.0
2017-Jun-21 11:30N 37°52' W 122°29'0 0.0
2017-Jun-21 11:00N 37°52' W 122°29'0 0.0
2017-Jun-21 10:30N 37°52' W 122°29'0 0.0
2017-Jun-21 10:00N 37°52' W 122°29'0 0.0
2017-Jun-21 09:30N 37°52' W 122°29'0 0.0
2017-Jun-21 09:00N 37°52' W 122°29'0 0.0
2017-Jun-21 08:30N 37°52' W 122°29'0 0.0
2017-Jun-21 08:00N 37°52' W 122°29'0 0.0
2017-Jun-21 07:30N 37°52' W 122°29'0 0.0
2017-Jun-21 07:00N 37°52' W 122°29'0 0.0
2017-Jun-21 06:30N 37°52' W 122°29'0 0.0
2017-Jun-21 06:00N 37°52' W 122°29'0 0.0
2017-Jun-21 05:30N 37°52' W 122°29'0 0.0
2017-Jun-21 05:00N 37°52' W 122°29'0 0.0
2017-Jun-21 04:30N 37°52' W 122°29'0 0.0
2017-Jun-21 04:00N 37°52' W 122°29'0 0.0
2017-Jun-21 03:30N 37°52' W 122°29'0 0.0
2017-Jun-21 03:00N 37°52' W 122°29'0 0.0
2017-Jun-21 02:30N 37°52' W 122°29'0 0.0
2017-Jun-21 02:00N 37°52' W 122°29'0 0.0
2017-Jun-21 01:30N 37°52' W 122°29'0 0.0
2017-Jun-21 01:00N 37°52' W 122°29'0 0.0
2017-Jun-21 00:30N 37°52' W 122°29'0 0.0
2017-Jun-21 00:00N 37°52' W 122°29'0 0.0
2017-Jun-20 23:30N 37°52' W 122°29'0 0.0
2017-Jun-20 23:00N 37°52' W 122°29'0 0.0
2017-Jun-20 22:30N 37°52' W 122°29'0 0.0
2017-Jun-20 22:00N 37°52' W 122°29'0 0.0
2017-Jun-20 21:30N 37°52' W 122°29'0 0.0
2017-Jun-20 21:00N 37°52' W 122°29'0 0.0
2017-Jun-20 20:30N 37°52' W 122°29'0 0.0
2017-Jun-20 20:00N 37°52' W 122°29'0 0.0
2017-Jun-20 19:30N 37°52' W 122°29'0 0.0
2017-Jun-20 19:00N 37°52' W 122°29'0 0.0
2017-Jun-20 18:30N 37°52' W 122°29'0 0.0
2017-Jun-20 18:00N 37°52' W 122°29'0 0.0
2017-Jun-20 17:30N 37°52' W 122°29'0 0.0
2017-Jun-20 16:57N 37°52' W 122°29'0 0.0
2017-Jun-20 16:30N 37°52' W 122°29'0 0.0
2017-Jun-20 16:00N 37°52' W 122°29'0 0.0
2017-Jun-20 15:30N 37°52' W 122°29'0 0.0
2017-Jun-20 15:00N 37°52' W 122°29'0 0.0
2017-Jun-20 14:30N 37°52' W 122°29'0 0.0
2017-Jun-20 13:30N 37°52' W 122°29'0 0.0
2017-Jun-20 13:00N 37°52' W 122°29'0 0.0
2017-Jun-20 12:30N 37°52' W 122°29'0 0.0
2017-Jun-20 12:00N 37°52' W 122°29'0 0.0
2017-Jun-20 11:30N 37°52' W 122°29'0 0.0
2017-Jun-20 11:00N 37°52' W 122°29'0 0.0
2017-Jun-20 10:30N 37°52' W 122°29'0 0.0
2017-Jun-20 10:00N 37°52' W 122°29'0 0.0
2017-Jun-20 09:30N 37°52' W 122°29'0 0.0
2017-Jun-20 09:00N 37°52' W 122°29'0 0.0
2017-Jun-20 08:30N 37°52' W 122°29'0 0.0
2017-Jun-20 08:00N 37°52' W 122°29'0 0.0
2017-Jun-20 07:30N 37°52' W 122°29'0 0.0
2017-Jun-20 07:00N 37°52' W 122°29'0 0.0
2017-Jun-20 06:30N 37°52' W 122°29'0 0.0
2017-Jun-20 06:00N 37°52' W 122°29'0 0.0
2017-Jun-20 05:30N 37°52' W 122°29'0 0.0
2017-Jun-20 05:00N 37°52' W 122°29'0 0.0
2017-Jun-20 04:30N 37°52' W 122°29'0 0.0
2017-Jun-20 04:00N 37°52' W 122°29'0 0.0
2017-Jun-20 03:30N 37°52' W 122°29'0 0.0
2017-Jun-20 03:00N 37°52' W 122°29'0 0.0
2017-Jun-20 02:30N 37°52' W 122°29'0 0.0
2017-Jun-20 02:00N 37°52' W 122°29'0 0.0
2017-Jun-20 01:30N 37°52' W 122°29'0 0.0
2017-Jun-20 01:00N 37°52' W 122°29'0 0.0
2017-Jun-20 00:30N 37°52' W 122°29'0 0.0
2017-Jun-20 00:00N 37°52' W 122°29'0 0.0
2017-Jun-19 23:30N 37°52' W 122°29'0 0.0
2017-Jun-19 23:00N 37°52' W 122°29'0 0.0
2017-Jun-19 22:30N 37°52' W 122°29'0 0.0
2017-Jun-19 22:00N 37°52' W 122°29'0 0.0
2017-Jun-19 21:30N 37°52' W 122°29'0 0.0
2017-Jun-19 21:00N 37°52' W 122°29'0 0.0
2017-Jun-19 20:30N 37°52' W 122°29'0 0.0
2017-Jun-19 20:00N 37°52' W 122°29'0 0.0
2017-Jun-19 19:30N 37°52' W 122°29'0 0.0
2017-Jun-19 19:00N 37°52' W 122°29'0 0.0
2017-Jun-19 18:30N 37°52' W 122°29'1 2.7
2017-Jun-19 18:00N 37°51' W 122°28'0 0.1
2017-Jun-19 17:30N 37°51' W 122°28'0 0.1
2017-Jun-19 17:00N 37°51' W 122°28'0 0.1
2017-Jun-19 16:31N 37°51' W 122°28'0 0.0
2017-Jun-19 16:01N 37°51' W 122°28'0 0.1
2017-Jun-19 15:30N 37°51' W 122°28'0 0.0
2017-Jun-19 15:00N 37°51' W 122°28'0 0.0
2017-Jun-19 14:01N 37°51' W 122°28'0 0.1
2017-Jun-19 13:31N 37°51' W 122°28'0 0.0
2017-Jun-19 13:00N 37°51' W 122°28'0 0.0
2017-Jun-19 12:30N 37°51' W 122°28'0 0.1
2017-Jun-19 12:01N 37°51' W 122°28'0 0.2
2017-Jun-19 11:30N 37°51' W 122°28'0 0.4
2017-Jun-19 11:01N 37°51' W 122°28'0 0.0
2017-Jun-19 10:31N 37°51' W 122°28'0 0.1
2017-Jun-19 10:01N 37°51' W 122°28'0 0.1
2017-Jun-19 09:31N 37°51' W 122°28'0 0.1
2017-Jun-19 09:01N 37°51' W 122°28'0 0.0
2017-Jun-19 08:31N 37°51' W 122°28'1 2.4
2017-Jun-19 08:01N 37°50' W 122°28'3 6.7
2017-Jun-19 07:30N 37°48' W 122°31'3 6.7
2017-Jun-19 07:00N 37°47' W 122°35'6 7.9
2017-Jun-19 06:17N 37°42' W 122°40'3 9.4
2017-Jun-19 05:57N 37°39' W 122°40'4 9.2
2017-Jun-19 05:30N 37°35' W 122°40'5 9.4
2017-Jun-19 05:00N 37°30' W 122°40'5 9.5
2017-Jun-19 04:31N 37°26' W 122°40'5 9.4
2017-Jun-19 04:01N 37°21' W 122°40'5 9.6
2017-Jun-19 03:29N 37°16' W 122°41'2 3.6
2017-Jun-19 03:00N 37°18' W 122°40'2 3.8
2017-Jun-19 02:29N 37°16' W 122°40'3 6.4
2017-Jun-19 01:56N 37°12' W 122°40'12 7.0
2017-Jun-19 00:18N 37°01' W 122°36'6 9.2
2017-Jun-18 23:42N 36°56' W 122°32'2 8.9
2017-Jun-18 23:27N 36°54' W 122°31'6 9.0
2017-Jun-18 22:45N 36°49' W 122°27'3 9.3
2017-Jun-18 22:25N 36°46' W 122°25'4 9.1
2017-Jun-18 22:00N 36°43' W 122°23'5 9.2
2017-Jun-18 21:30N 36°39' W 122°20'5 9.1
2017-Jun-18 21:00N 36°35' W 122°17'4 8.6
2017-Jun-18 20:30N 36°32' W 122°14'5 9.3
2017-Jun-18 20:00N 36°28' W 122°11'5 9.7
2017-Jun-18 19:30N 36°24' W 122°08'5 9.5
2017-Jun-18 19:00N 36°20' W 122°05'5 9.6
2017-Jun-18 18:30N 36°15' W 122°01'5 9.8
2017-Jun-18 18:00N 36°11' W 121°58'5 9.7
2017-Jun-18 17:30N 36°07' W 121°55'5 9.8
2017-Jun-18 17:00N 36°03' W 121°52'5 9.5
2017-Jun-18 16:30N 35°59' W 121°49'5 9.2
2017-Jun-18 16:00N 35°55' W 121°46'5 8.9
2017-Jun-18 15:28N 35°51' W 121°43'28 9.4
2017-Jun-18 12:29N 35°27' W 121°24'17 8.7
2017-Jun-18 10:32N 35°13' W 121°13'0 8.1
2017-Jun-18 10:30N 35°13' W 121°12'4 8.3
2017-Jun-18 10:01N 35°10' W 121°10'4 7.9
2017-Jun-18 09:31N 35°06' W 121°07'4 8.0
2017-Jun-18 09:01N 35°03' W 121°05'4 7.8
2017-Jun-18 08:31N 34°60' W 121°02'4 7.5
2017-Jun-18 08:00N 34°56' W 121°00'4 8.2
2017-Jun-18 07:31N 34°53' W 120°58'4 8.3
2017-Jun-18 07:00N 34°49' W 120°55'4 8.7
2017-Jun-18 06:30N 34°45' W 120°53'4 8.6
2017-Jun-18 06:00N 34°41' W 120°51'4 8.5
2017-Jun-18 05:30N 34°37' W 120°49'4 8.6
2017-Jun-18 05:00N 34°33' W 120°48'5 8.2
2017-Jun-18 04:27N 34°29' W 120°46'4 8.1
2017-Jun-18 03:57N 34°26' W 120°42'4 8.0
2017-Jun-18 03:30N 34°24' W 120°39'4 8.2
2017-Jun-18 02:59N 34°22' W 120°34'4 8.3
2017-Jun-18 02:30N 34°21' W 120°29'5 9.3
2017-Jun-18 02:00N 34°20' W 120°24'5 9.6
2017-Jun-18 01:30N 34°19' W 120°18'5 9.5
2017-Jun-18 01:00N 34°18' W 120°13'5 9.6
2017-Jun-18 00:30N 34°16' W 120°07'5 9.9
2017-Jun-18 00:00N 34°15' W 120°01'5 9.6
2017-Jun-17 23:30N 34°14' W 119°56'5 9.7
2017-Jun-17 22:57N 34°12' W 119°50'4 9.5
2017-Jun-17 22:31N 34°11' W 119°45'5 9.2
2017-Jun-17 22:00N 34°10' W 119°39'5 9.4
2017-Jun-17 21:30N 34°08' W 119°34'5 9.4
2017-Jun-17 21:00N 34°07' W 119°28'5 9.3
2017-Jun-17 20:27N 34°06' W 119°22'4 9.7
2017-Jun-17 20:00N 34°05' W 119°17'5 9.1
2017-Jun-17 19:30N 34°03' W 119°12'5 9.6
2017-Jun-17 19:00N 34°00' W 119°07'5 9.7
2017-Jun-17 18:29N 33°58' W 119°02'5 9.9
2017-Jun-17 17:59N 33°56' W 118°57'510.0
2017-Jun-17 17:30N 33°53' W 118°52'510.0
2017-Jun-17 17:00N 33°51' W 118°47'510.1
2017-Jun-17 16:31N 33°48' W 118°41'510.2
2017-Jun-17 16:00N 33°46' W 118°36'510.0
2017-Jun-17 15:31N 33°43' W 118°31'5 9.6
2017-Jun-17 15:00N 33°41' W 118°26'10 9.6
2017-Jun-17 14:00N 33°38' W 118°15'5 9.4
2017-Jun-17 13:31N 33°36' W 118°10'510.4
2017-Jun-17 13:00N 33°31' W 118°08'510.6
2017-Jun-17 12:30N 33°26' W 118°05'510.4
2017-Jun-17 12:01N 33°21' W 118°03'510.5
2017-Jun-17 11:31N 33°16' W 118°00'610.4
2017-Jun-17 10:58N 33°11' W 117°57'510.2
2017-Jun-17 10:31N 33°07' W 117°55'510.4
2017-Jun-17 10:00N 33°02' W 117°52'510.5
2017-Jun-17 09:30N 32°58' W 117°49'510.5
2017-Jun-17 09:01N 32°53' W 117°46'510.4
2017-Jun-17 08:30N 32°48' W 117°44'5 9.5
2017-Jun-17 08:01N 32°45' W 117°40'5 9.2
2017-Jun-17 07:31N 32°40' W 117°39'5 9.8
2017-Jun-17 07:00N 32°36' W 117°37'5 9.9
2017-Jun-17 06:31N 32°31' W 117°34'5 9.8
2017-Jun-17 06:00N 32°27' W 117°32'5 9.5
2017-Jun-17 05:31N 32°22' W 117°30'5 9.6
2017-Jun-17 05:00N 32°18' W 117°27'5 9.6
2017-Jun-17 04:30N 32°14' W 117°25'5 9.4
2017-Jun-17 04:00N 32°09' W 117°22'5 9.5
2017-Jun-17 03:30N 32°05' W 117°20'26 9.3
2017-Jun-17 00:43N 31°43' W 117°05'  
Track history (hours):
 
Tides and Currents Weather Stations Pressure Air Temp Water Temp Dewpoint Dewpoint Depression Visibility Wind Speed Wind Dir Waves Ship Positions

Komokwa

Last reported at 2017-Jun-24 09:17 UTC. Time now 2017-Jun-24 20:47 UTC.
Position N 38°45' W 123°46'.

Length 37 m; draft 2.3 m.

Type: Ship. MMSI: 378111827.

Date/timePositionNaut miles runAvg speedWind from/ knotsBaromVisibWave heightAir tempDewpointWater temp
2017-Jun-24 09:17N 38°45' W 123°46'2 7.9
2017-Jun-24 09:00N 38°43' W 123°45'4 8.2
2017-Jun-24 08:30N 38°39' W 123°43'4 8.4
2017-Jun-24 08:00N 38°36' W 123°40'4 8.6
2017-Jun-24 07:30N 38°32' W 123°38'4 8.6
2017-Jun-24 07:00N 38°28' W 123°35'4 8.0
2017-Jun-24 06:30N 38°25' W 123°33'4 7.9
2017-Jun-24 06:00N 38°21' W 123°30'4 8.2
2017-Jun-24 05:30N 38°18' W 123°27'4 8.1
2017-Jun-24 05:00N 38°14' W 123°25'4 8.2
2017-Jun-24 04:30N 38°11' W 123°22'4 8.2
2017-Jun-24 04:00N 38°08' W 123°18'4 8.3
2017-Jun-24 03:30N 38°05' W 123°14'4 8.6
2017-Jun-24 03:00N 38°02' W 123°10'5 9.5
2017-Jun-24 02:30N 37°59' W 123°06'5 9.3
2017-Jun-24 02:00N 37°56' W 123°01'4 8.4
2017-Jun-24 01:30N 37°54' W 122°57'4 8.6
2017-Jun-24 01:00N 37°51' W 122°52'4 7.0
2017-Jun-24 00:30N 37°50' W 122°48'4 7.9
2017-Jun-24 00:00N 37°48' W 122°44'4 7.8
2017-Jun-23 23:30N 37°46' W 122°39'4 8.5
2017-Jun-23 23:00N 37°47' W 122°34'510.0
2017-Jun-23 22:30N 37°49' W 122°28'4 7.1
2017-Jun-23 22:00N 37°51' W 122°25'3 7.0
2017-Jun-23 21:30N 37°55' W 122°25'2 3.9
2017-Jun-23 21:00N 37°55' W 122°22'0 0.0
2017-Jun-23 20:28N 37°55' W 122°22'0 0.0
2017-Jun-23 19:58N 37°55' W 122°22'0 0.0
2017-Jun-23 19:28N 37°55' W 122°22'0 0.0
2017-Jun-23 18:58N 37°55' W 122°22'0 0.0
2017-Jun-23 18:28N 37°55' W 122°22'0 0.0
2017-Jun-23 17:58N 37°55' W 122°22'0 0.0
2017-Jun-23 17:28N 37°55' W 122°22'0 0.0
2017-Jun-23 16:58N 37°55' W 122°22'0 0.0
2017-Jun-23 16:28N 37°55' W 122°22'0 0.0
2017-Jun-23 15:55N 37°55' W 122°22'0 0.0
2017-Jun-23 15:28N 37°55' W 122°22'0 0.0
2017-Jun-23 14:55N 37°55' W 122°22'0 0.0
2017-Jun-23 13:58N 37°55' W 122°22'0 0.0
2017-Jun-23 13:28N 37°55' W 122°22'0 0.0
2017-Jun-23 12:58N 37°55' W 122°22'0 0.0
2017-Jun-23 12:28N 37°55' W 122°22'0 0.0
2017-Jun-23 11:55N 37°55' W 122°22'0 0.0
2017-Jun-23 11:28N 37°55' W 122°22'0 0.0
2017-Jun-23 10:58N 37°55' W 122°22'0 0.0
2017-Jun-23 10:28N 37°55' W 122°22'0 0.0
2017-Jun-23 09:58N 37°55' W 122°22'0 0.0
2017-Jun-23 09:28N 37°55' W 122°22'0 0.0
2017-Jun-23 08:58N 37°55' W 122°22'0 0.0
2017-Jun-23 08:28N 37°55' W 122°22'0 0.0
2017-Jun-23 07:55N 37°55' W 122°22'0 0.0
2017-Jun-23 07:28N 37°55' W 122°22'0 0.0
2017-Jun-23 06:58N 37°55' W 122°22'0 0.0
2017-Jun-23 06:28N 37°55' W 122°22'0 0.0
2017-Jun-23 05:58N 37°55' W 122°22'0 0.0
2017-Jun-23 05:28N 37°55' W 122°22'0 0.0
2017-Jun-23 04:58N 37°55' W 122°22'0 0.0
2017-Jun-23 04:28N 37°55' W 122°22'0 0.0
2017-Jun-23 03:55N 37°55' W 122°22'0 0.0
2017-Jun-23 03:28N 37°55' W 122°22'0 0.0
2017-Jun-23 02:58N 37°55' W 122°22'0 0.0
2017-Jun-23 02:28N 37°55' W 122°22'0 0.0
2017-Jun-23 01:58N 37°55' W 122°22'0 0.0
2017-Jun-23 01:25N 37°55' W 122°22'0 0.0
2017-Jun-23 00:55N 37°55' W 122°22'0 0.0
2017-Jun-23 00:25N 37°55' W 122°22'0 0.0
2017-Jun-23 00:00N 37°55' W 122°22'0 0.0
2017-Jun-22 23:30N 37°55' W 122°22'1 1.9
2017-Jun-22 23:00N 37°54' W 122°22'3 5.7
2017-Jun-22 22:30N 37°54' W 122°25'4 7.2
2017-Jun-22 22:00N 37°51' W 122°26'3 5.7
2017-Jun-22 21:30N 37°52' W 122°29'0 0.0
2017-Jun-22 21:00N 37°52' W 122°29'0 0.0
2017-Jun-22 20:30N 37°52' W 122°29'0 0.0
2017-Jun-22 20:00N 37°52' W 122°29'0 0.0
2017-Jun-22 19:30N 37°52' W 122°29'0 0.0
2017-Jun-22 19:00N 37°52' W 122°29'0 0.0
2017-Jun-22 18:30N 37°52' W 122°29'0 0.0
2017-Jun-22 18:00N 37°52' W 122°29'0 0.0
2017-Jun-22 17:30N 37°52' W 122°29'0 0.0
2017-Jun-22 17:00N 37°52' W 122°29'0 0.0
2017-Jun-22 16:30N 37°52' W 122°29'0 0.0
2017-Jun-22 16:00N 37°52' W 122°29'0 0.0
2017-Jun-22 15:30N 37°52' W 122°29'0 0.0
2017-Jun-22 15:00N 37°52' W 122°29'0 0.0
2017-Jun-22 14:30N 37°52' W 122°29'0 0.0
2017-Jun-22 13:30N 37°52' W 122°29'0 0.0
2017-Jun-22 13:00N 37°52' W 122°29'0 0.0
2017-Jun-22 12:30N 37°52' W 122°29'0 0.0
2017-Jun-22 12:00N 37°52' W 122°29'0 0.0
2017-Jun-22 11:30N 37°52' W 122°29'0 0.0
2017-Jun-22 11:00N 37°52' W 122°29'0 0.0
2017-Jun-22 10:30N 37°52' W 122°29'0 0.0
2017-Jun-22 10:00N 37°52' W 122°29'0 0.0
2017-Jun-22 09:30N 37°52' W 122°29'0 0.0
2017-Jun-22 09:00N 37°52' W 122°29'0 0.0
2017-Jun-22 08:27N 37°52' W 122°29'0 0.0
2017-Jun-22 08:00N 37°52' W 122°29'0 0.0
2017-Jun-22 07:30N 37°52' W 122°29'0 0.0
2017-Jun-22 07:00N 37°52' W 122°29'0 0.0
2017-Jun-22 06:30N 37°52' W 122°29'0 0.0
2017-Jun-22 06:00N 37°52' W 122°29'0 0.0
2017-Jun-22 05:30N 37°52' W 122°29'0 0.0
2017-Jun-22 05:00N 37°52' W 122°29'0 0.0
2017-Jun-22 04:30N 37°52' W 122°29'0 0.0
2017-Jun-22 04:00N 37°52' W 122°29'0 0.0
2017-Jun-22 03:30N 37°52' W 122°29'0 0.0
2017-Jun-22 03:00N 37°52' W 122°29'0 0.0
2017-Jun-22 02:30N 37°52' W 122°29'0 0.0
2017-Jun-22 02:00N 37°52' W 122°29'0 0.0
2017-Jun-22 01:30N 37°52' W 122°29'0 0.0
2017-Jun-22 01:00N 37°52' W 122°29'0 0.0
2017-Jun-22 00:30N 37°52' W 122°29'0 0.0
2017-Jun-22 00:00N 37°52' W 122°29'0 0.0
2017-Jun-21 23:30N 37°52' W 122°29'0 0.0
2017-Jun-21 23:00N 37°52' W 122°29'0 0.0
2017-Jun-21 22:30N 37°52' W 122°29'0 0.0
2017-Jun-21 22:00N 37°52' W 122°29'0 0.0
2017-Jun-21 21:30N 37°52' W 122°29'0 0.0
2017-Jun-21 21:00N 37°52' W 122°29'0 0.0
2017-Jun-21 20:30N 37°52' W 122°29'0 0.0
2017-Jun-21 20:00N 37°52' W 122°29'0 0.0
2017-Jun-21 19:30N 37°52' W 122°29'0 0.0
2017-Jun-21 19:00N 37°52' W 122°29'0 0.0
2017-Jun-21 18:30N 37°52' W 122°29'0 0.0
2017-Jun-21 18:00N 37°52' W 122°29'0 0.0
2017-Jun-21 17:30N 37°52' W 122°29'0 0.0
2017-Jun-21 17:00N 37°52' W 122°29'0 0.0
2017-Jun-21 16:30N 37°52' W 122°29'0 0.0
2017-Jun-21 16:00N 37°52' W 122°29'0 0.0
2017-Jun-21 15:30N 37°52' W 122°29'0 0.0
2017-Jun-21 15:00N 37°52' W 122°29'0 0.0
2017-Jun-21 14:00N 37°52' W 122°29'0 0.0
2017-Jun-21 13:30N 37°52' W 122°29'0 0.0
2017-Jun-21 13:00N 37°52' W 122°29'0 0.0
2017-Jun-21 12:30N 37°52' W 122°29'0 0.0
2017-Jun-21 12:00N 37°52' W 122°29'0 0.0
2017-Jun-21 11:30N 37°52' W 122°29'0 0.0
2017-Jun-21 11:00N 37°52' W 122°29'0 0.0
2017-Jun-21 10:30N 37°52' W 122°29'0 0.0
2017-Jun-21 10:00N 37°52' W 122°29'0 0.0
2017-Jun-21 09:30N 37°52' W 122°29'0 0.0
2017-Jun-21 09:00N 37°52' W 122°29'0 0.0
2017-Jun-21 08:30N 37°52' W 122°29'0 0.0
2017-Jun-21 08:00N 37°52' W 122°29'0 0.0
2017-Jun-21 07:30N 37°52' W 122°29'0 0.0
2017-Jun-21 07:00N 37°52' W 122°29'0 0.0
2017-Jun-21 06:30N 37°52' W 122°29'0 0.0
2017-Jun-21 06:00N 37°52' W 122°29'0 0.0
2017-Jun-21 05:30N 37°52' W 122°29'0 0.0
2017-Jun-21 05:00N 37°52' W 122°29'0 0.0
2017-Jun-21 04:30N 37°52' W 122°29'0 0.0
2017-Jun-21 04:00N 37°52' W 122°29'0 0.0
2017-Jun-21 03:30N 37°52' W 122°29'0 0.0
2017-Jun-21 03:00N 37°52' W 122°29'0 0.0
2017-Jun-21 02:30N 37°52' W 122°29'0 0.0
2017-Jun-21 02:00N 37°52' W 122°29'0 0.0
2017-Jun-21 01:30N 37°52' W 122°29'0 0.0
2017-Jun-21 01:00N 37°52' W 122°29'0 0.0
2017-Jun-21 00:30N 37°52' W 122°29'0 0.0
2017-Jun-21 00:00N 37°52' W 122°29'0 0.0
2017-Jun-20 23:30N 37°52' W 122°29'0 0.0
2017-Jun-20 23:00N 37°52' W 122°29'0 0.0
2017-Jun-20 22:30N 37°52' W 122°29'0 0.0
2017-Jun-20 22:00N 37°52' W 122°29'0 0.0
2017-Jun-20 21:30N 37°52' W 122°29'0 0.0
2017-Jun-20 21:00N 37°52' W 122°29'0 0.0
2017-Jun-20 20:30N 37°52' W 122°29'0 0.0
2017-Jun-20 20:00N 37°52' W 122°29'0 0.0
2017-Jun-20 19:30N 37°52' W 122°29'0 0.0
2017-Jun-20 19:00N 37°52' W 122°29'0 0.0
2017-Jun-20 18:30N 37°52' W 122°29'0 0.0
2017-Jun-20 18:00N 37°52' W 122°29'0 0.0
2017-Jun-20 17:30N 37°52' W 122°29'0 0.0
2017-Jun-20 16:57N 37°52' W 122°29'0 0.0
2017-Jun-20 16:30N 37°52' W 122°29'0 0.0
2017-Jun-20 16:00N 37°52' W 122°29'0 0.0
2017-Jun-20 15:30N 37°52' W 122°29'0 0.0
2017-Jun-20 15:00N 37°52' W 122°29'0 0.0
2017-Jun-20 14:30N 37°52' W 122°29'0 0.0
2017-Jun-20 13:30N 37°52' W 122°29'0 0.0
2017-Jun-20 13:00N 37°52' W 122°29'0 0.0
2017-Jun-20 12:30N 37°52' W 122°29'0 0.0
2017-Jun-20 12:00N 37°52' W 122°29'0 0.0
2017-Jun-20 11:30N 37°52' W 122°29'0 0.0
2017-Jun-20 11:00N 37°52' W 122°29'0 0.0
2017-Jun-20 10:30N 37°52' W 122°29'0 0.0
2017-Jun-20 10:00N 37°52' W 122°29'0 0.0
2017-Jun-20 09:30N 37°52' W 122°29'0 0.0
2017-Jun-20 09:00N 37°52' W 122°29'0 0.0
2017-Jun-20 08:30N 37°52' W 122°29'0 0.0
2017-Jun-20 08:00N 37°52' W 122°29'0 0.0
2017-Jun-20 07:30N 37°52' W 122°29'0 0.0
2017-Jun-20 07:00N 37°52' W 122°29'0 0.0
2017-Jun-20 06:30N 37°52' W 122°29'0 0.0
2017-Jun-20 06:00N 37°52' W 122°29'0 0.0
2017-Jun-20 05:30N 37°52' W 122°29'0 0.0
2017-Jun-20 05:00N 37°52' W 122°29'0 0.0
2017-Jun-20 04:30N 37°52' W 122°29'0 0.0
2017-Jun-20 04:00N 37°52' W 122°29'0 0.0
2017-Jun-20 03:30N 37°52' W 122°29'0 0.0
2017-Jun-20 03:00N 37°52' W 122°29'0 0.0
2017-Jun-20 02:30N 37°52' W 122°29'0 0.0
2017-Jun-20 02:00N 37°52' W 122°29'0 0.0
2017-Jun-20 01:30N 37°52' W 122°29'0 0.0
2017-Jun-20 01:00N 37°52' W 122°29'0 0.0
2017-Jun-20 00:30N 37°52' W 122°29'0 0.0
2017-Jun-20 00:00N 37°52' W 122°29'0 0.0
2017-Jun-19 23:30N 37°52' W 122°29'0 0.0
2017-Jun-19 23:00N 37°52' W 122°29'0 0.0
2017-Jun-19 22:30N 37°52' W 122°29'0 0.0
2017-Jun-19 22:00N 37°52' W 122°29'0 0.0
2017-Jun-19 21:30N 37°52' W 122°29'0 0.0
2017-Jun-19 21:00N 37°52' W 122°29'0 0.0
2017-Jun-19 20:30N 37°52' W 122°29'0 0.0
2017-Jun-19 20:00N 37°52' W 122°29'0 0.0
2017-Jun-19 19:30N 37°52' W 122°29'0 0.0
2017-Jun-19 19:00N 37°52' W 122°29'0 0.0
2017-Jun-19 18:30N 37°52' W 122°29'1 2.7
2017-Jun-19 18:00N 37°51' W 122°28'0 0.1
2017-Jun-19 17:30N 37°51' W 122°28'0 0.1
2017-Jun-19 17:00N 37°51' W 122°28'0 0.1
2017-Jun-19 16:31N 37°51' W 122°28'0 0.0
2017-Jun-19 16:01N 37°51' W 122°28'0 0.1
2017-Jun-19 15:30N 37°51' W 122°28'0 0.0
2017-Jun-19 15:00N 37°51' W 122°28'0 0.0
2017-Jun-19 14:01N 37°51' W 122°28'0 0.1
2017-Jun-19 13:31N 37°51' W 122°28'0 0.0
2017-Jun-19 13:00N 37°51' W 122°28'0 0.0
2017-Jun-19 12:30N 37°51' W 122°28'0 0.1
2017-Jun-19 12:01N 37°51' W 122°28'0 0.2
2017-Jun-19 11:30N 37°51' W 122°28'0 0.4
2017-Jun-19 11:01N 37°51' W 122°28'0 0.0
2017-Jun-19 10:31N 37°51' W 122°28'0 0.1
2017-Jun-19 10:01N 37°51' W 122°28'0 0.1
2017-Jun-19 09:31N 37°51' W 122°28'0 0.1
2017-Jun-19 09:01N 37°51' W 122°28'0 0.0
2017-Jun-19 08:31N 37°51' W 122°28'1 2.4
2017-Jun-19 08:01N 37°50' W 122°28'3 6.7
2017-Jun-19 07:30N 37°48' W 122°31'3 6.7
2017-Jun-19 07:00N 37°47' W 122°35'6 7.9
2017-Jun-19 06:17N 37°42' W 122°40'3 9.4
2017-Jun-19 05:57N 37°39' W 122°40'4 9.2
2017-Jun-19 05:30N 37°35' W 122°40'5 9.4
2017-Jun-19 05:00N 37°30' W 122°40'5 9.5
2017-Jun-19 04:31N 37°26' W 122°40'5 9.4
2017-Jun-19 04:01N 37°21' W 122°40'5 9.6
2017-Jun-19 03:29N 37°16' W 122°41'2 3.6
2017-Jun-19 03:00N 37°18' W 122°40'2 3.8
2017-Jun-19 02:29N 37°16' W 122°40'3 6.4
2017-Jun-19 01:56N 37°12' W 122°40'12 7.0
2017-Jun-19 00:18N 37°01' W 122°36'6 9.2
2017-Jun-18 23:42N 36°56' W 122°32'2 8.9
2017-Jun-18 23:27N 36°54' W 122°31'6 9.0
2017-Jun-18 22:45N 36°49' W 122°27'3 9.3
2017-Jun-18 22:25N 36°46' W 122°25'4 9.1
2017-Jun-18 22:00N 36°43' W 122°23'5 9.2
2017-Jun-18 21:30N 36°39' W 122°20'5 9.1
2017-Jun-18 21:00N 36°35' W 122°17'4 8.6
2017-Jun-18 20:30N 36°32' W 122°14'5 9.3
2017-Jun-18 20:00N 36°28' W 122°11'5 9.7
2017-Jun-18 19:30N 36°24' W 122°08'5 9.5
2017-Jun-18 19:00N 36°20' W 122°05'5 9.6
2017-Jun-18 18:30N 36°15' W 122°01'5 9.8
2017-Jun-18 18:00N 36°11' W 121°58'5 9.7
2017-Jun-18 17:30N 36°07' W 121°55'5 9.8
2017-Jun-18 17:00N 36°03' W 121°52'5 9.5
2017-Jun-18 16:30N 35°59' W 121°49'5 9.2
2017-Jun-18 16:00N 35°55' W 121°46'5 8.9
2017-Jun-18 15:28N 35°51' W 121°43'28 9.4
2017-Jun-18 12:29N 35°27' W 121°24'17 8.7
2017-Jun-18 10:32N 35°13' W 121°13'0 8.1
2017-Jun-18 10:30N 35°13' W 121°12'4 8.3
2017-Jun-18 10:01N 35°10' W 121°10'4 7.9
2017-Jun-18 09:31N 35°06' W 121°07'4 8.0
2017-Jun-18 09:01N 35°03' W 121°05'4 7.8
2017-Jun-18 08:31N 34°60' W 121°02'4 7.5
2017-Jun-18 08:00N 34°56' W 121°00'4 8.2
2017-Jun-18 07:31N 34°53' W 120°58'4 8.3
2017-Jun-18 07:00N 34°49' W 120°55'4 8.7
2017-Jun-18 06:30N 34°45' W 120°53'4 8.6
2017-Jun-18 06:00N 34°41' W 120°51'4 8.5
2017-Jun-18 05:30N 34°37' W 120°49'4 8.6
2017-Jun-18 05:00N 34°33' W 120°48'5 8.2
2017-Jun-18 04:27N 34°29' W 120°46'4 8.1
2017-Jun-18 03:57N 34°26' W 120°42'4 8.0
2017-Jun-18 03:30N 34°24' W 120°39'4 8.2
2017-Jun-18 02:59N 34°22' W 120°34'4 8.3
2017-Jun-18 02:30N 34°21' W 120°29'5 9.3
2017-Jun-18 02:00N 34°20' W 120°24'5 9.6
2017-Jun-18 01:30N 34°19' W 120°18'5 9.5
2017-Jun-18 01:00N 34°18' W 120°13'5 9.6
2017-Jun-18 00:30N 34°16' W 120°07'5 9.9
2017-Jun-18 00:00N 34°15' W 120°01'5 9.6
2017-Jun-17 23:30N 34°14' W 119°56'5 9.7
2017-Jun-17 22:57N 34°12' W 119°50'4 9.5
2017-Jun-17 22:31N 34°11' W 119°45'5 9.2
2017-Jun-17 22:00N 34°10' W 119°39'5 9.4
2017-Jun-17 21:30N 34°08' W 119°34'5 9.4
2017-Jun-17 21:00N 34°07' W 119°28'5 9.3
2017-Jun-17 20:27N 34°06' W 119°22'4 9.7
2017-Jun-17 20:00N 34°05' W 119°17'5 9.1
2017-Jun-17 19:30N 34°03' W 119°12'5 9.6
2017-Jun-17 19:00N 34°00' W 119°07'5 9.7
2017-Jun-17 18:29N 33°58' W 119°02'5 9.9
2017-Jun-17 17:59N 33°56' W 118°57'510.0
2017-Jun-17 17:30N 33°53' W 118°52'510.0
2017-Jun-17 17:00N 33°51' W 118°47'510.1
2017-Jun-17 16:31N 33°48' W 118°41'510.2
2017-Jun-17 16:00N 33°46' W 118°36'510.0
2017-Jun-17 15:31N 33°43' W 118°31'5 9.6
2017-Jun-17 15:00N 33°41' W 118°26'10 9.6
2017-Jun-17 14:00N 33°38' W 118°15'5 9.4
2017-Jun-17 13:31N 33°36' W 118°10'510.4
2017-Jun-17 13:00N 33°31' W 118°08'510.6
2017-Jun-17 12:30N 33°26' W 118°05'510.4
2017-Jun-17 12:01N 33°21' W 118°03'510.5
2017-Jun-17 11:31N 33°16' W 118°00'610.4
2017-Jun-17 10:58N 33°11' W 117°57'510.2
2017-Jun-17 10:31N 33°07' W 117°55'510.4
2017-Jun-17 10:00N 33°02' W 117°52'510.5
2017-Jun-17 09:30N 32°58' W 117°49'510.5
2017-Jun-17 09:01N 32°53' W 117°46'510.4
2017-Jun-17 08:30N 32°48' W 117°44'5 9.5
2017-Jun-17 08:01N 32°45' W 117°40'5 9.2
2017-Jun-17 07:31N 32°40' W 117°39'5 9.8
2017-Jun-17 07:00N 32°36' W 117°37'5 9.9
2017-Jun-17 06:31N 32°31' W 117°34'5 9.8
2017-Jun-17 06:00N 32°27' W 117°32'5 9.5
2017-Jun-17 05:31N 32°22' W 117°30'5 9.6
2017-Jun-17 05:00N 32°18' W 117°27'5 9.6
2017-Jun-17 04:30N 32°14' W 117°25'5 9.4
2017-Jun-17 04:00N 32°09' W 117°22'5 9.5
2017-Jun-17 03:30N 32°05' W 117°20'26 9.3
2017-Jun-17 00:43N 31°43' W 117°05'  

Dump ship's entire track history